Time;durP1;ratioP1;P1;durP2;ratioP2;P2;SDS_P1;SDS_P2;PMS_P1;PMS_P2;Temp;Humidity;BMP_temperature;BMP_pressure;BME280_temperature;BME280_humidity;BME280_pressure;Samples;Min_cycle;Max_cycle;Signal;HPM_P1;HPM_P2
2023/11/13 00:00:20;;;;;;;38.35;23.60;;;7.70;99.90;;;7.81;100.00;100546.50;4805868;29;20398;-64
2023/11/13 00:02:49;;;;;;;41.08;25.17;;;7.60;99.90;;;7.67;100.00;100542.94;4806006;29;20099;-64
2023/11/13 00:05:19;;;;;;;40.72;25.08;;;7.50;99.90;;;7.53;100.00;100521.88;4806294;29;20082;-64
2023/11/13 00:07:47;;;;;;;37.90;25.40;;;7.30;99.90;;;7.35;100.00;100508.69;4806042;29;20501;-63
2023/11/13 00:10:16;;;;;;;38.97;24.08;;;7.20;99.90;;;7.39;100.00;100494.66;4805940;29;20051;-64
2023/11/13 00:12:44;;;;;;;40.67;25.15;;;7.20;99.90;;;7.34;100.00;100496.41;4806397;29;20061;-63
2023/11/13 00:15:13;;;;;;;35.78;24.80;;;7.10;99.90;;;7.48;100.00;100497.31;4805842;29;20501;-63
2023/11/13 00:17:41;;;;;;;37.92;24.63;;;7.20;99.90;;;7.66;100.00;100504.34;4805827;29;20053;-64
2023/11/13 00:20:11;;;;;;;35.15;24.00;;;7.40;99.90;;;7.74;100.00;100502.63;4805822;29;20387;-63
2023/11/13 00:22:41;;;;;;;38.42;23.88;;;7.50;99.90;;;7.71;100.00;100511.38;4805763;29;20081;-63
2023/11/13 00:25:09;;;;;;;34.42;23.95;;;7.50;99.90;;;7.65;100.00;100515.75;4806026;29;20421;-63
2023/11/13 00:27:38;;;;;;;37.47;24.73;;;7.40;99.90;;;7.72;100.00;100518.41;4805762;29;20085;-64
2023/11/13 00:30:08;;;;;;;35.20;23.65;;;7.50;99.90;;;7.64;100.00;100511.38;4805992;29;20127;-63
2023/11/13 00:32:36;;;;;;;35.25;24.73;;;7.40;99.90;;;7.57;100.00;100491.19;4805947;29;20080;-63
2023/11/13 00:35:06;;;;;;;32.70;23.50;;;7.40;99.90;;;7.69;100.00;100494.72;4804390;29;20516;-64
2023/11/13 00:37:34;;;;;;;34.60;23.60;;;7.40;99.90;;;7.76;100.00;100491.19;4804563;29;20085;-64
2023/11/13 00:40:05;;;;;;;35.35;25.88;;;7.50;99.90;;;7.77;100.00;100492.06;4805905;29;20070;-64
2023/11/13 00:42:34;;;;;;;35.42;24.92;;;7.50;99.90;;;7.83;100.00;100489.47;4806121;29;20059;-64
2023/11/13 00:45:02;;;;;;;33.88;25.10;;;7.60;99.90;;;6.98;100.00;100355.22;4805596;29;20138;-63
2023/11/13 00:47:30;;;;;;;37.95;25.00;;;7.50;99.90;;;7.77;100.00;100479.81;4805569;29;20074;-64
2023/11/13 00:49:59;;;;;;;36.78;23.70;;;7.50;99.90;;;7.68;100.00;100468.41;4805549;29;20066;-64
2023/11/13 00:52:27;;;;;;;34.40;23.50;;;7.50;99.90;;;7.55;100.00;100464.00;4805758;29;20057;-64
2023/11/13 00:54:56;;;;;;;31.85;23.67;;;7.40;99.90;;;7.56;100.00;100458.72;4805527;29;20489;-64
2023/11/13 00:57:26;;;;;;;30.63;21.30;;;7.30;99.90;;;7.59;100.00;100453.47;4804333;29;20085;-64
2023/11/13 00:59:55;;;;;;;32.13;21.57;;;7.40;99.90;;;7.65;100.00;100466.63;4805745;29;20046;-64
2023/11/13 01:02:25;;;;;;;33.45;21.65;;;7.40;99.90;;;7.75;100.00;100471.03;4805227;29;20059;-63
2023/11/13 01:04:54;;;;;;;31.75;21.45;;;7.50;99.90;;;7.83;100.00;100476.28;4805732;29;20055;-63
2023/11/13 01:07:23;;;;;;;32.33;21.95;;;7.60;99.90;;;7.76;100.00;100464.88;4805633;29;20043;-63
2023/11/13 01:09:52;;;;;;;27.38;20.75;;;7.60;99.90;;;7.69;100.00;100444.69;4805615;29;20063;-64
2023/11/13 01:12:22;;;;;;;27.95;20.25;;;7.60;99.90;;;7.77;100.00;100457.84;4805582;29;20043;-64
2023/11/13 01:14:52;;;;;;;29.45;21.92;;;7.50;99.90;;;7.68;100.00;100466.66;4805680;29;20413;-64
2023/11/13 01:17:21;;;;;;;29.23;20.65;;;7.50;99.90;;;7.80;100.00;100453.47;4805266;29;20043;-64
2023/11/13 01:19:50;;;;;;;28.88;21.23;;;7.50;99.90;;;7.90;100.00;100464.88;4805606;29;20126;-64
2023/11/13 01:22:18;;;;;;;28.17;20.35;;;7.60;99.90;;;7.96;100.00;100463.13;4805861;29;20055;-65
2023/11/13 01:24:47;;;;;;;30.08;20.85;;;7.70;99.90;;;7.85;100.00;100454.38;4805535;29;20070;-63
2023/11/13 01:27:15;;;;;;;29.23;20.92;;;7.70;99.90;;;7.88;100.00;100449.09;4804230;29;20051;-64
2023/11/13 01:29:44;;;;;;;30.58;20.90;;;7.70;99.90;;;7.94;100.00;100459.63;4805227;29;20481;-64
2023/11/13 01:32:14;;;;;;;29.50;21.88;;;7.70;99.90;;;7.78;100.00;100463.13;4805250;29;20043;-64
2023/11/13 01:34:42;;;;;;;27.80;20.57;;;7.60;99.90;;;7.85;100.00;100467.53;4805479;29;20058;-64
2023/11/13 01:37:11;;;;;;;31.98;20.58;;;7.60;99.90;;;7.90;100.00;100475.41;4804032;29;20651;-64
2023/11/13 01:39:40;;;;;;;29.77;20.60;;;7.70;99.90;;;8.03;100.00;100478.03;4805421;29;20050;-64
2023/11/13 01:42:08;;;;;;;26.38;19.92;;;7.70;99.90;;;8.16;100.00;100471.91;4805333;29;20054;-64
2023/11/13 01:44:37;;;;;;;27.17;20.00;;;7.90;99.90;;;8.19;100.00;100477.16;4805335;29;20047;-64
2023/11/13 01:47:07;;;;;;;29.98;20.25;;;7.90;99.90;;;8.39;100.00;100473.63;4808064;29;20086;-65
2023/11/13 01:49:36;;;;;;;21.75;18.50;;;8.10;99.90;;;8.57;100.00;100473.59;4808650;29;20503;-64
2023/11/13 01:52:07;;;;;;;25.92;19.15;;;8.30;99.90;;;8.77;100.00;100463.84;4807434;29;20509;-64
2023/11/13 01:54:36;;;;;;;25.23;19.75;;;8.50;99.90;;;8.84;100.00;100448.03;4808613;29;20058;-64
2023/11/13 01:57:09;;;;;;;25.40;18.10;;;8.60;99.90;;;8.70;100.00;100455.09;4808296;29;20063;-65
2023/11/13 01:59:40;;;;;;;23.55;18.50;;;8.60;99.90;;;8.47;100.00;100451.66;4807157;29;20501;-64
2023/11/13 02:02:08;;;;;;;;;;;8.30;99.90;;;8.17;100.00;100410.41;4807105;29;20520;-64
2023/11/13 02:04:38;;;;;;;21.63;17.83;;;8.10;99.90;;;8.17;100.00;100426.22;4808322;29;19933;-64
2023/11/13 02:07:07;;;;;;;21.45;16.88;;;8.00;99.90;;;8.25;100.00;100428.00;4807042;29;20055;-64
2023/11/13 02:09:36;;;;;;;24.92;17.60;;;8.00;99.90;;;8.29;100.00;100433.25;4808441;29;20159;-63
2023/11/13 02:12:05;;;;;;;25.13;17.77;;;8.00;99.90;;;8.21;100.00;100432.34;4806936;29;20055;-64
2023/11/13 02:14:34;;;;;;;24.88;17.90;;;7.90;99.90;;;8.33;100.00;100429.75;4807053;29;20083;-63
2023/11/13 02:17:03;;;;;;;22.55;17.52;;;8.10;99.90;;;8.23;100.00;100417.44;4806873;29;20058;-64
2023/11/13 02:19:32;;;;;;;25.00;18.60;;;8.00;99.90;;;8.23;100.00;100405.13;4808187;29;20055;-64
2023/11/13 02:22:04;;;;;;;23.42;17.95;;;8.00;99.90;;;8.14;100.00;100396.38;4806810;29;20051;-64
2023/11/13 02:24:34;;;;;;;28.40;18.30;;;7.90;99.90;;;8.08;100.00;100388.50;4807075;29;20149;-64
2023/11/13 02:27:02;;;;;;;28.10;18.00;;;7.90;99.90;;;8.08;100.00;100381.47;4807749;29;20482;-64
2023/11/13 02:29:31;;;;;;;24.83;18.58;;;7.90;99.90;;;8.05;100.00;100378.84;4807874;29;20086;-64
2023/11/13 02:32:01;;;;;;;24.33;18.85;;;7.80;99.90;;;8.05;100.00;100384.09;4806665;29;20067;-63
2023/11/13 02:34:29;;;;;;;24.63;17.50;;;7.90;99.90;;;8.12;100.00;100383.22;4807825;29;20058;-64
2023/11/13 02:36:58;;;;;;;25.58;18.58;;;7.90;99.90;;;8.20;100.00;100388.47;4821629;29;20058;-64
2023/11/13 02:39:26;;;;;;;26.75;18.70;;;8.00;99.90;;;8.19;100.00;100376.16;4807645;29;20050;-65
2023/11/13 02:41:56;;;;;;;22.77;17.80;;;8.10;99.90;;;8.38;100.00;100403.38;4807455;29;20042;-63
2023/11/13 02:44:25;;;;;;;26.10;18.65;;;8.20;99.90;;;8.53;100.00;100413.88;4807325;29;20415;-65
2023/11/13 02:46:55;;;;;;;25.98;18.48;;;8.30;99.90;;;8.49;100.00;100430.56;4806661;29;20560;-64
2023/11/13 02:49:23;;;;;;;27.35;17.65;;;8.30;99.90;;;8.62;100.00;100429.63;4806408;29;20082;-64
2023/11/13 02:51:52;;;;;;;23.75;18.38;;;8.40;99.90;;;8.57;100.00;100427.03;4806280;29;20050;-64
2023/11/13 02:54:21;;;;;;;26.60;17.95;;;8.50;99.90;;;8.56;100.00;100434.94;4806213;29;20120;-64
2023/11/13 02:56:49;;;;;;;22.70;17.73;;;8.40;99.90;;;8.48;100.00;100405.97;4807278;29;20059;-64
2023/11/13 02:59:19;;;;;;;22.50;17.42;;;8.50;99.90;;;8.65;100.00;100432.28;4807294;29;20051;-64
2023/11/13 03:01:47;;;;;;;24.95;18.42;;;8.50;99.90;;;8.74;100.00;100432.25;4805913;29;20059;-64
2023/11/13 03:04:16;;;;;;;24.20;18.92;;;8.60;99.90;;;8.78;100.00;100441.88;4807248;29;20497;-65
2023/11/13 03:06:44;;;;;;;27.58;18.27;;;8.70;99.90;;;8.83;100.00;100434.81;4805989;29;20050;-64
2023/11/13 03:09:12;;;;;;;25.88;17.58;;;8.70;99.90;;;8.95;100.00;100440.03;4806978;29;20096;-64
2023/11/13 03:11:41;;;;;;;27.08;19.45;;;8.80;99.90;;;8.90;100.00;100423.38;4807501;29;20774;-64
2023/11/13 03:14:10;;;;;;;27.13;18.45;;;8.80;99.90;;;8.97;100.00;100433.88;4807103;29;20437;-65
2023/11/13 03:16:40;;;;;;;22.85;17.55;;;8.90;99.90;;;8.95;100.00;100418.94;4807090;29;20393;-64
2023/11/13 03:19:09;;;;;;;25.08;18.10;;;8.80;99.90;;;8.89;100.00;100404.03;4806761;29;20080;-64
2023/11/13 03:21:37;;;;;;;25.58;19.80;;;8.80;99.90;;;8.84;100.00;100399.69;4807085;29;20409;-64
2023/11/13 03:24:07;;;;;;;23.75;18.30;;;8.70;99.90;;;8.78;100.00;100397.94;4805726;29;20055;-64
2023/11/13 03:26:35;;;;;;;27.08;18.75;;;8.60;99.90;;;8.77;100.00;100411.13;4806619;29;20497;-64
2023/11/13 03:29:04;;;;;;;26.83;19.40;;;8.70;99.90;;;8.76;100.00;100412.00;4806883;29;20065;-64
2023/11/13 03:31:32;;;;;;;29.80;20.30;;;8.70;99.90;;;8.61;100.00;100406.81;4806818;29;20084;-65
2023/11/13 03:34:02;;;;;;;28.55;20.05;;;8.50;99.90;;;8.70;100.00;100405.00;4806598;29;20451;-64
2023/11/13 03:36:31;;;;;;;34.38;21.45;;;8.50;99.90;;;8.72;100.00;100410.28;4806811;29;20054;-64
2023/11/13 03:39:00;;;;;;;29.55;22.67;;;8.60;99.90;;;8.70;100.00;100415.56;4806363;29;20094;-64
2023/11/13 03:41:28;;;;;;;29.58;21.40;;;8.60;99.90;;;8.88;100.00;100411.97;4806629;29;20474;-65
2023/11/13 03:43:57;;;;;;;27.67;21.42;;;8.70;99.90;;;8.78;100.00;100410.25;4806632;29;20095;-65
2023/11/13 03:46:26;;;;;;;30.00;21.88;;;8.60;99.90;;;8.79;100.00;100417.25;4805298;29;20081;-64
2023/11/13 03:48:55;;;;;;;30.75;21.55;;;8.60;99.90;;;8.72;100.00;100378.63;4806581;29;20556;-64
2023/11/13 03:51:26;;;;;;;25.88;21.40;;;8.60;99.90;;;8.78;100.00;100389.16;4806298;29;20058;-66
2023/11/13 03:53:54;;;;;;;29.00;21.80;;;8.60;99.90;;;8.78;100.00;100387.41;4806313;29;20047;-65
2023/11/13 03:56:25;;;;;;;28.77;21.48;;;8.60;99.90;;;8.82;100.00;100377.72;4804925;29;20043;-64
2023/11/13 03:58:53;;;;;;;;;;;8.60;99.90;;;8.45;100.00;100320.78;4805527;29;20051;-64
2023/11/13 04:01:22;;;;;;;30.17;21.65;;;8.50;99.90;;;8.74;100.00;100351.38;4820183;29;19999;-64
2023/11/13 04:03:50;;;;;;;29.27;23.08;;;8.60;99.90;;;8.75;100.00;100349.63;4806104;29;20051;-65
2023/11/13 04:06:19;;;;;;;31.58;22.88;;;8.50;99.90;;;8.77;100.00;100342.56;4806543;29;20050;-64
2023/11/13 04:08:49;;;;;;;28.48;21.95;;;8.60;99.90;;;8.69;100.00;100334.69;4805744;29;20413;-64
2023/11/13 04:11:17;;;;;;;31.37;22.80;;;8.50;99.90;;;8.80;100.00;100321.47;4806036;29;20409;-64
2023/11/13 04:13:46;;;;;;;31.00;23.73;;;8.60;99.90;;;8.80;100.00;100313.56;4805143;29;20320;-64
2023/11/13 04:16:14;;;;;;;32.10;22.95;;;8.60;99.90;;;8.72;100.00;100312.72;4805894;29;20043;-64
2023/11/13 04:18:43;;;;;;;40.38;24.23;;;8.50;99.90;;;8.71;100.00;100308.34;4805764;29;20051;-64
2023/11/13 04:21:11;;;;;;;35.25;24.50;;;8.50;99.90;;;8.64;100.00;100309.25;4806143;29;20134;-65
2023/11/13 04:23:39;;;;;;;38.00;25.73;;;8.50;99.90;;;8.78;100.00;100305.66;4806020;29;20136;-64
2023/11/13 04:26:09;;;;;;;45.00;25.08;;;8.60;99.90;;;8.67;100.00;100303.97;4806040;29;20451;-65
2023/11/13 04:28:38;;;;;;;40.00;25.25;;;8.50;99.90;;;8.74;100.00;100293.38;4805789;29;20110;-64
2023/11/13 04:31:09;;;;;;;;;;;8.60;99.90;;;8.86;100.00;100295.94;4806253;29;20051;-64
2023/11/13 04:33:37;;;;;;;51.35;28.23;;;8.70;99.90;;;8.83;100.00;100285.41;4805471;29;19929;-65
2023/11/13 04:36:06;;;;;;;55.05;28.48;;;8.70;99.90;;;8.85;100.00;100285.38;4805703;29;20059;-64
2023/11/13 04:38:37;;;;;;;68.80;29.02;;;8.70;99.90;;;8.92;100.00;100279.19;4805800;29;20055;-64
2023/11/13 04:41:08;;;;;;;70.72;30.60;;;8.80;99.90;;;8.94;100.00;100270.38;4805724;29;20051;-64
2023/11/13 04:43:38;;;;;;;60.35;29.92;;;8.80;99.90;;;8.96;100.00;100276.50;4805659;29;20137;-64
2023/11/13 04:46:07;;;;;;;63.72;31.00;;;8.80;99.90;;;8.98;100.00;100269.47;4805646;29;20130;-64
2023/11/13 04:48:38;;;;;;;59.92;31.95;;;8.90;99.90;;;9.09;100.00;100264.13;4806068;29;20051;-64
2023/11/13 04:51:07;;;;;;;71.40;34.03;;;8.90;99.90;;;8.96;100.00;100241.38;4804603;29;20497;-64
2023/11/13 04:53:38;;;;;;;87.72;35.92;;;8.90;99.90;;;9.01;100.00;100251.00;4805725;29;20478;-65
2023/11/13 04:56:11;;;;;;;103.82;36.88;;;8.90;99.90;;;9.03;100.00;100243.06;4805557;29;20054;-64
2023/11/13 04:58:40;;;;;;;90.57;35.53;;;8.90;99.90;;;9.00;100.00;100248.38;4805387;29;20062;-64
2023/11/13 05:01:08;;;;;;;60.90;34.13;;;8.90;99.90;;;9.23;100.00;100253.44;4805488;29;20058;-64
2023/11/13 05:03:37;;;;;;;79.18;34.53;;;9.00;99.90;;;9.33;100.00;100261.25;4805441;29;20086;-64
2023/11/13 05:06:06;;;;;;;91.10;35.85;;;9.20;99.90;;;9.24;100.00;100257.81;4805438;29;20120;-65
2023/11/13 05:08:35;;;;;;;74.13;35.00;;;9.10;99.90;;;9.26;100.00;100259.56;4804433;29;20078;-64
2023/11/13 05:11:06;;;;;;;78.67;35.43;;;9.10;99.90;;;9.39;100.00;100266.47;4805445;29;20051;-64
2023/11/13 05:13:36;;;;;;;;;;;9.20;99.90;;;9.42;100.00;100258.53;4804887;29;20493;-64
2023/11/13 05:16:05;;;;;;;79.43;34.35;;;9.30;99.90;;;9.47;100.00;100259.34;4819564;29;19925;-64
2023/11/13 05:18:33;;;;;;;62.15;34.22;;;9.30;99.90;;;9.54;100.00;100257.53;4805296;29;20081;-64
2023/11/13 05:21:02;;;;;;;104.80;36.25;;;9.40;99.90;;;9.43;100.00;100252.38;4806672;29;20100;-64
2023/11/13 05:23:30;;;;;;;91.05;35.35;;;9.40;99.90;;;9.51;100.00;100250.53;4808722;29;20059;-64
2023/11/13 05:26:02;;;;;;;138.48;37.08;;;9.40;99.90;;;9.52;100.00;100246.13;4807738;29;20447;-64
2023/11/13 05:28:30;;;;;;;80.78;34.80;;;9.40;99.90;;;9.50;100.00;100243.50;4808697;29;20047;-65
2023/11/13 05:31:00;;;;;;;110.22;35.33;;;9.40;99.90;;;9.40;100.00;100244.50;4809158;29;20051;-64
2023/11/13 05:33:29;;;;;;;84.00;34.75;;;9.30;99.90;;;9.45;100.00;100245.31;4809177;29;20103;-64
2023/11/13 05:35:58;;;;;;;79.93;35.05;;;9.20;99.90;;;9.35;100.00;100227.81;4809093;29;20055;-64
2023/11/13 05:38:27;;;;;;;112.25;34.78;;;9.30;99.90;;;9.40;100.00;100235.69;4808508;29;20065;-64
2023/11/13 05:40:55;;;;;;;101.40;35.92;;;9.20;99.90;;;9.23;100.00;100219.16;4808696;29;20078;-64
2023/11/13 05:43:24;;;;;;;101.82;35.20;;;9.10;99.90;;;9.29;100.00;100204.09;4808430;29;20131;-65
2023/11/13 05:45:53;;;;;;;112.57;34.53;;;9.10;99.90;;;9.45;100.00;100216.28;4808718;29;20061;-65
2023/11/13 05:48:23;;;;;;;132.05;36.30;;;9.20;99.90;;;9.52;100.00;100222.38;4808360;29;20051;-64
2023/11/13 05:50:55;;;;;;;134.75;36.47;;;9.30;99.90;;;9.53;100.00;100229.38;4808458;29;20086;-64
2023/11/13 05:53:24;;;;;;;124.00;35.55;;;9.30;99.90;;;9.57;100.00;100224.06;4808506;29;20425;-65
2023/11/13 05:55:52;;;;;;;126.80;37.08;;;9.40;99.90;;;9.66;100.00;100231.00;4808302;29;20050;-64
2023/11/13 05:58:23;;;;;;;94.32;36.67;;;9.40;99.90;;;9.72;100.00;100221.25;4808297;29;20079;-65
2023/11/13 06:00:51;;;;;;;107.35;40.30;;;9.50;99.90;;;9.68;100.00;100219.53;4807951;29;20168;-64
2023/11/13 06:03:20;;;;;;;92.75;40.38;;;9.50;99.90;;;9.81;100.00;100209.72;4808121;29;20047;-64
2023/11/13 06:05:50;;;;;;;96.90;43.95;;;9.60;99.90;;;9.89;100.00;100207.88;4808053;29;20050;-64
2023/11/13 06:08:19;;;;;;;90.22;41.85;;;9.70;99.90;;;9.99;100.00;100214.75;4808028;29;20058;-65
2023/11/13 06:10:47;;;;;;;75.03;40.28;;;9.90;99.90;;;10.11;100.00;100201.44;4807962;29;20225;-64
2023/11/13 06:13:16;;;;;;;73.65;40.38;;;9.90;99.90;;;10.19;100.00;100204.84;4807950;29;20049;-62
2023/11/13 06:15:45;;;;;;;73.97;40.15;;;10.00;99.90;;;10.25;100.00;100201.25;4807843;29;20059;-64
2023/11/13 06:18:13;;;;;;;68.68;39.03;;;10.20;99.90;;;10.41;100.00;100208.94;4808073;29;20080;-64
2023/11/13 06:20:42;;;;;;;70.80;40.22;;;10.20;99.90;;;10.46;100.00;100195.63;4807985;29;20053;-64
2023/11/13 06:23:12;;;;;;;72.70;38.05;;;10.30;99.90;;;10.41;100.00;100189.56;4807747;29;20111;-64
2023/11/13 06:25:40;;;;;;;74.53;39.67;;;10.30;99.90;;;10.41;100.00;100187.81;4807776;29;20055;-64
2023/11/13 06:28:11;;;;;;;75.53;40.20;;;10.30;99.90;;;10.41;100.00;100181.63;4807774;29;20051;-65
2023/11/13 06:30:40;;;;;;;68.75;39.08;;;10.30;99.90;;;10.46;100.00;100179.78;4807583;29;20054;-64
2023/11/13 06:33:08;;;;;;;73.28;38.03;;;10.30;99.90;;;10.59;100.00;100170.75;4807206;29;20058;-66
2023/11/13 06:35:37;;;;;;;80.38;39.05;;;10.50;99.90;;;10.60;100.00;100169.88;4807614;29;20047;-66
2023/11/13 06:38:07;;;;;;;75.35;39.63;;;10.50;99.90;;;10.54;100.00;100167.31;4807551;29;20058;-65
2023/11/13 06:40:37;;;;;;;70.77;38.37;;;10.50;99.90;;;10.59;100.00;100161.06;4807439;29;20133;-66
2023/11/13 06:43:05;;;;;;;67.20;37.37;;;10.50;99.90;;;10.60;100.00;100148.72;4806187;29;20335;-64
2023/11/13 06:45:34;;;;;;;72.38;36.72;;;10.60;99.90;;;10.78;100.00;100161.66;4807614;29;20307;-64
2023/11/13 06:48:03;;;;;;;66.90;36.35;;;10.60;99.90;;;10.75;100.00;100153.75;4807325;29;20047;-64
2023/11/13 06:50:31;;;;;;;66.28;37.45;;;10.70;99.90;;;10.86;100.00;100143.84;4807315;29;20058;-64
2023/11/13 06:52:59;;;;;;;66.55;35.63;;;10.70;99.90;;;10.84;100.00;100153.59;4807255;29;20051;-64
2023/11/13 06:55:28;;;;;;;65.35;34.80;;;10.70;99.90;;;10.97;100.00;100147.22;4807709;29;20047;-64
2023/11/13 06:57:57;;;;;;;66.53;34.78;;;10.80;99.90;;;10.97;100.00;100133.97;4807183;29;20107;-64
2023/11/13 07:00:26;;;;;;;61.73;35.20;;;10.90;99.90;;;11.05;100.00;100131.19;4807244;29;20054;-64
2023/11/13 07:02:55;;;;;;;59.95;34.17;;;10.90;99.90;;;11.12;100.00;100131.03;4807317;29;20134;-63
2023/11/13 07:05:23;;;;;;;58.22;33.35;;;11.00;99.90;;;11.22;100.00;100132.63;4807139;29;20559;-67
2023/11/13 07:07:52;;;;;;;54.28;32.00;;;11.00;99.90;;;11.19;100.00;100147.69;4806916;29;20462;-62
2023/11/13 07:10:21;;;;;;;59.70;32.00;;;11.10;99.90;;;11.25;100.00;100127.25;4806830;29;20047;-62
2023/11/13 07:12:50;;;;;;;54.38;30.52;;;11.10;99.90;;;11.35;100.00;100138.53;4807043;29;20051;-63
2023/11/13 07:15:20;;;;;;;57.22;30.65;;;11.20;99.90;;;11.41;100.00;100131.38;4806916;29;20417;-64
2023/11/13 07:17:49;;;;;;;53.60;29.08;;;11.30;99.90;;;11.46;100.00;100140.06;4807176;29;20051;-65
2023/11/13 07:20:18;;;;;;;51.50;29.50;;;11.30;99.90;;;11.51;100.00;100118.81;4807017;29;20057;-64
2023/11/13 07:22:50;;;;;;;59.88;28.85;;;11.40;99.90;;;11.45;100.00;100127.75;4806637;29;20420;-65
2023/11/13 07:25:19;;;;;;;47.17;28.00;;;11.30;99.90;;;11.56;100.00;100122.22;4806977;29;20061;-65
2023/11/13 07:27:47;;;;;;;56.58;28.60;;;11.40;99.90;;;11.54;100.00;100113.44;4806611;29;20057;-64
2023/11/13 07:30:16;;;;;;;49.08;27.30;;;11.40;99.90;;;11.63;100.00;100114.13;4807140;29;20058;-63
2023/11/13 07:32:46;;;;;;;51.97;27.38;;;11.50;99.90;;;11.59;100.00;100115.09;4806488;29;20055;-64
2023/11/13 07:35:14;;;;;;;48.90;28.33;;;11.50;99.90;;;11.51;100.00;100108.22;4805818;29;20088;-62
2023/11/13 07:37:44;;;;;;;58.30;28.88;;;11.40;99.90;;;11.42;100.00;100096.03;4806440;29;20099;-65
2023/11/13 07:40:14;;;;;;;;;;;11.40;99.90;;;11.44;100.00;100096.03;4806830;29;20047;-62
2023/11/13 07:42:45;;;;;;;53.15;23.80;;;11.30;99.90;;;11.51;100.00;100071.16;4806130;29;19974;-64
2023/11/13 07:45:14;;;;;;;43.33;22.80;;;11.40;99.90;;;11.59;100.00;100075.34;4806097;29;20504;-63
2023/11/13 07:47:44;;;;;;;46.70;19.42;;;11.50;99.90;;;11.52;100.00;100057.84;4806764;29;20058;-64
2023/11/13 07:50:13;;;;;;;45.13;18.75;;;11.50;99.90;;;11.68;100.00;100084.94;4806357;29;20050;-63
2023/11/13 07:52:43;;;;;;;46.92;19.92;;;11.50;99.90;;;11.73;100.00;100078.63;4806702;29;20146;-63
2023/11/13 07:55:13;;;;;;;37.05;16.88;;;11.60;99.90;;;11.69;100.00;100065.50;4806482;29;20051;-64
2023/11/13 07:57:42;;;;;;;41.55;15.75;;;11.60;99.90;;;11.70;100.00;100048.69;4806413;29;20490;-63
2023/11/13 08:00:16;;;;;;;43.28;16.98;;;11.50;99.90;;;11.64;100.00;100041.72;4806109;29;20390;-68
2023/11/13 08:02:46;;;;;;;36.90;15.07;;;11.50;99.90;;;11.58;100.00;100036.53;4788070;29;20486;-64
2023/11/13 08:05:16;;;;;;;34.73;15.77;;;11.50;99.90;;;11.60;100.00;100050.63;4788351;29;20062;-63
2023/11/13 08:07:50;;;;;;;31.80;14.52;;;11.50;99.90;;;11.57;100.00;100041.88;4802033;29;20476;-63
2023/11/13 08:10:19;;;;;;;39.00;14.95;;;11.50;99.90;;;11.69;100.00;100037.22;4788228;29;20482;-63
2023/11/13 08:12:49;;;;;;;37.05;15.45;;;11.50;99.90;;;11.69;100.00;100026.59;4787974;29;20082;-63
2023/11/13 08:15:18;;;;;;;36.25;15.40;;;11.50;99.90;;;11.81;100.00;100001.63;4801983;29;20062;-63
2023/11/13 08:17:52;;;;;;;40.63;19.23;;;11.60;99.90;;;11.70;100.00;100004.53;4788098;29;20051;-62
2023/11/13 08:20:26;;;;;;;39.65;20.65;;;11.60;99.90;;;11.69;100.00;99984.22;4788131;29;20551;-62
2023/11/13 08:22:56;;;;;;;52.13;23.58;;;11.60;99.90;;;11.63;100.00;99986.97;4801883;29;20059;-63
2023/11/13 08:25:26;;;;;;;;;;;11.50;99.90;;;11.43;100.00;99946.84;4788215;29;20047;-63
2023/11/13 08:27:54;;;;;;;43.83;20.35;;;11.50;99.90;;;11.63;100.00;99975.53;4787970;29;19925;-64
2023/11/13 08:30:23;;;;;;;43.10;18.90;;;11.50;99.90;;;11.53;100.00;99969.59;4787682;29;20098;-64
2023/11/13 08:32:54;;;;;;;37.55;16.63;;;11.40;99.90;;;11.64;100.00;99959.59;4787675;30;20124;-64
2023/11/13 08:35:23;;;;;;;42.80;19.35;;;11.50;99.90;;;11.44;100.00;99937.16;4787692;29;20054;-64
2023/11/13 08:37:51;;;;;;;41.53;18.33;;;11.40;99.90;;;11.52;100.00;99954.59;4787910;29;20071;-64
2023/11/13 08:40:24;;;;;;;38.35;19.85;;;11.40;99.90;;;11.43;100.00;99946.84;4788100;29;20059;-65
2023/11/13 08:42:54;;;;;;;30.70;18.55;;;11.30;99.90;;;11.49;100.00;99951.13;4787559;30;20143;-65
2023/11/13 08:45:24;;;;;;;34.35;18.98;;;11.30;99.90;;;11.42;100.00;99944.25;4787614;29;20490;-65
2023/11/13 08:47:55;;;;;;;37.72;20.77;;;11.30;99.90;;;11.40;100.00;99912.50;4801376;29;20047;-64
2023/11/13 08:50:24;;;;;;;35.97;19.75;;;11.30;99.90;;;11.39;100.00;99958.41;4801612;29;20532;-64
2023/11/13 08:52:56;;;;;;;32.33;18.15;;;11.30;99.90;;;11.52;100.00;99945.75;4787554;29;20061;-64
2023/11/13 08:55:25;;;;;;;29.70;14.95;;;11.30;99.90;;;11.41;100.00;99923.97;4790151;29;20055;-64
2023/11/13 08:57:55;;;;;;;30.15;15.00;;;11.30;99.90;;;11.35;100.00;99937.34;4791430;29;20108;-63
2023/11/13 09:00:29;;;;;;;29.17;12.30;;;11.20;99.90;;;11.31;100.00;99909.19;4791883;29;20446;-63
2023/11/13 09:02:59;;;;;;;25.75;11.52;;;11.20;99.90;;;11.30;100.00;99895.09;4809364;29;20112;-63
2023/11/13 09:05:28;;;;;;;22.77;10.02;;;11.10;99.90;;;11.09;100.00;99868.25;4809384;29;20132;-64
2023/11/13 09:07:58;;;;;;;17.15;7.95;;;11.00;99.90;;;11.05;100.00;99896.56;4809317;29;20058;-64
2023/11/13 09:10:27;;;;;;;21.17;8.00;;;10.90;99.90;;;11.06;100.00;99900.06;4809022;29;20410;-65
2023/11/13 09:12:58;;;;;;;16.75;6.72;;;10.90;99.90;;;10.96;100.00;99885.28;4809046;29;20300;-64
2023/11/13 09:15:30;;;;;;;14.00;6.95;;;10.80;99.90;;;11.04;100.00;99854.22;4808959;29;20066;-64
2023/11/13 09:18:05;;;;;;;12.95;5.78;;;10.90;99.90;;;11.05;100.00;99878.03;4808973;29;20116;-64
2023/11/13 09:20:35;;;;;;;18.52;6.45;;;10.90;99.90;;;10.95;100.00;99854.44;4822896;29;20050;-64
2023/11/13 09:23:05;;;;;;;16.65;5.82;;;10.80;99.90;;;10.39;100.00;99765.78;4808970;29;20138;-63
2023/11/13 09:25:34;;;;;;;11.25;5.90;;;10.80;99.90;;;10.98;100.00;99819.97;4808760;29;20177;-63
2023/11/13 09:28:03;;;;;;;14.15;5.65;;;10.80;99.90;;;11.01;100.00;99846.38;4808956;29;20070;-63
2023/11/13 09:30:33;;;;;;;13.32;5.07;;;10.80;99.90;;;10.90;100.00;99822.78;4808662;29;20057;-62
2023/11/13 09:33:05;;;;;;;12.40;5.65;;;10.80;99.90;;;10.95;100.00;99820.94;4808649;29;20094;-63
2023/11/13 09:35:33;;;;;;;10.60;4.90;;;10.80;99.90;;;10.92;100.00;99817.50;4808596;29;20047;-63
2023/11/13 09:38:02;;;;;;;10.43;4.32;;;10.70;99.90;;;10.91;100.00;99813.97;4808614;29;20141;-64
2023/11/13 09:40:34;;;;;;;13.40;5.00;;;10.70;99.90;;;10.87;100.00;99788.50;4809062;29;20074;-63
2023/11/13 09:43:12;;;;;;;11.63;4.88;;;10.70;99.90;;;10.90;100.00;99802.50;4808754;29;20050;-63
2023/11/13 09:45:45;;;;;;;9.32;4.38;;;10.70;99.90;;;10.88;100.00;99784.91;4808754;29;20053;-60
2023/11/13 09:48:19;;;;;;;11.35;5.10;;;10.70;99.90;;;10.92;100.00;99773.38;4808697;29;20051;-61
2023/11/13 09:50:49;;;;;;;7.28;4.43;;;10.70;99.90;;;10.93;100.00;99764.53;4808696;29;20138;-63
2023/11/13 09:53:25;;;;;;;9.43;5.22;;;10.80;99.90;;;11.04;100.00;99764.28;4822302;29;20063;-62
2023/11/13 09:55:55;;;;;;;7.30;4.53;;;10.80;99.90;;;11.04;100.00;99754.56;4808320;29;20099;-62
2023/11/13 09:58:26;;;;;;;8.95;5.43;;;10.80;99.90;;;11.06;100.00;99752.75;4808185;29;20079;-63
2023/11/13 10:00:54;;;;;;;10.32;5.90;;;10.90;99.90;;;11.12;100.00;99759.66;4808540;29;20682;-62
2023/11/13 10:03:24;;;;;;;11.48;5.50;;;11.00;99.90;;;11.06;100.00;99742.16;4807983;29;20054;-63
2023/11/13 10:05:53;;;;;;;10.95;6.22;;;10.90;99.90;;;11.17;100.00;99726.03;4806326;29;20141;-62
2023/11/13 10:08:22;;;;;;;9.82;6.25;;;11.00;99.90;;;11.15;100.00;99723.41;4806699;29;20122;-62
2023/11/13 10:10:51;;;;;;;12.95;6.80;;;11.00;99.90;;;11.16;100.00;99701.34;4807377;29;20061;-63
2023/11/13 10:13:23;;;;;;;13.30;6.75;;;11.00;99.90;;;11.21;100.00;99707.38;4806719;29;20054;-62